WetterOnline ( http://www.wetteronline.at )

Wetter aktuell Freiburg

Aktuelles Wetter: Freiburg/Flugplatz (236m)

6-stündlich | Neueste Meldungen
Ortszeit Temperatur Wetter
Mi, 23.01. 19:00 -1.2° C bedeckt
Mi, 23.01. 13:00 -0.6° C bedeckt
Mi, 23.01. 7:00 -3.2° C leichter Schneefall
Mi, 23.01. 1:00 -5.2° C bewölkt
Di, 22.01. 19:00 -2.8° C wolkenlos
Di, 22.01. 13:00 0.5° C bedeckt
Di, 22.01. 7:00 -1.4° C bedeckt
Di, 22.01. 1:00 -1.9° C bedeckt
Ortszeit Temperatur Wetter
Mi, 23.01. 19:00 -1.2° C bedeckt
Mi, 23.01. 18:50 -1.2° C bedeckt
Mi, 23.01. 18:40 -1.2° C bedeckt
Mi, 23.01. 18:30 -1.1° C bedeckt
Mi, 23.01. 18:20 -1.1° C bedeckt
Mi, 23.01. 18:10 -1.1° C bedeckt
Mi, 23.01. 18:00 -1.1° C bedeckt
Mi, 23.01. 17:30 -0.9° C bedeckt
Mi, 23.01. 17:00 -0.7° C bewölkt
Mi, 23.01. 16:30 -0.6° C bedeckt
Mi, 23.01. 16:00 -0.3° C bedeckt
Ortszeit Relative Feuchte Sichtweite
Mi, 23.01. 19:00 82% 5.0 km
Mi, 23.01. 13:00 87% 6 km
Mi, 23.01. 7:00 91% 4.6 km
Mi, 23.01. 1:00 93% 3.1 km
Di, 22.01. 19:00 89% 5.0 km
Di, 22.01. 13:00 72% 9 km
Di, 22.01. 7:00 84% 4.7 km
Di, 22.01. 1:00 88% 3.4 km
Ortszeit Relative Feuchte Sichtweite
Mi, 23.01. 19:00 82% 5.0 km
Mi, 23.01. 18:50 82% -
Mi, 23.01. 18:40 84% -
Mi, 23.01. 18:30 84% 5.0 km
Mi, 23.01. 18:20 84% -
Mi, 23.01. 18:10 85% -
Mi, 23.01. 18:00 90% 4.5 km
Mi, 23.01. 17:30 90% 4.0 km
Mi, 23.01. 17:00 90% 4.0 km
Mi, 23.01. 16:30 88% 4.4 km
Mi, 23.01. 16:00 87% 4.9 km
Ortszeit Niederschlagsmenge Niederschlagsart
Mi, 23.01. 19:00 0.1 l/m2 in 12 Std. -
Mi, 23.01. 13:00 0.1 l/m2 in 6 Std. Schnee
Mi, 23.01. 7:00 0.2 l/m2 in 12 Std. Schnee
Mi, 23.01. 1:00 0.0 l/m2 in 6 Std. -
Di, 22.01. 19:00 0.0 l/m2 in 12 Std. -
Di, 22.01. 13:00 0.0 l/m2 in 6 Std. -
Di, 22.01. 7:00 0.0 l/m2 in 12 Std. -
Di, 22.01. 1:00 0.0 l/m2 in 6 Std. -
Ortszeit Niederschlagsmenge Niederschlagsart
Mi, 23.01. 19:00 0.0 l/m2 in 1 Std. -
Mi, 23.01. 18:50 keine Meldung -
Mi, 23.01. 18:40 keine Meldung -
Mi, 23.01. 18:30 0.0 l/m2 in 1 Std. -
Mi, 23.01. 18:20 keine Meldung -
Mi, 23.01. 18:10 keine Meldung -
Mi, 23.01. 18:00 0.0 l/m2 in 1 Std. -
Mi, 23.01. 17:30 0.0 l/m2 in 1 Std. -
Mi, 23.01. 17:00 0.0 l/m2 in 1 Std. -
Mi, 23.01. 16:30 0.0 l/m2 in 1 Std. -
Mi, 23.01. 16:00 0.0 l/m2 in 1 Std. -
Ortszeit Stärke Spitze Richtung
km/h Bft. km/h Grad Sektor
Mi, 23.01. 19:00 7 2 14 360° N
Mi, 23.01. 13:00 6 1 9 350° N
Mi, 23.01. 7:00 4 1 11 340° N
Mi, 23.01. 1:00 4 1 7 100° O
Di, 22.01. 19:00 0 0 11 - -
Di, 22.01. 13:00 4 1 14 190° S
Di, 22.01. 7:00 7 2 11 270° W
Di, 22.01. 1:00 4 1 11 240° SW
Ortszeit Stärke Spitze Richtung
km/h Bft. km/h Grad Sektor
Mi, 23.01. 19:00 7 2 14 360° N
Mi, 23.01. 18:50 7 2 - 360° N
Mi, 23.01. 18:40 7 2 - 360° N
Mi, 23.01. 18:30 7 2 14 350° N
Mi, 23.01. 18:20 7 2 - 350° N
Mi, 23.01. 18:10 7 2 - 350° N
Mi, 23.01. 18:00 9 2 13 330° NW
Mi, 23.01. 17:30 11 2 14 320° NW
Mi, 23.01. 17:00 11 2 14 330° NW
Mi, 23.01. 16:30 11 2 14 340° N
Mi, 23.01. 16:00 11 2 14 340° N
Ortszeit Untergrenze Bedeckung Gattung
total tief tief mittel hoch
Mi, 23.01. 19:00 360 m 8/8 8/8 - - -
Mi, 23.01. 13:00 210 m 8/8 8/8 - - -
Mi, 23.01. 7:00 690 m 8/8 8/8 - - -
Mi, 23.01. 1:00 3900 m 7/8 7/8 - - -
Di, 22.01. 19:00 - 0/8 0/8 - - -
Di, 22.01. 13:00 540 m 8/8 8/8 - - -
Di, 22.01. 7:00 420 m 8/8 8/8 - - -
Di, 22.01. 1:00 240 m 8/8 8/8 - - -
Ortszeit Bedeckungsgrad in Achtel und Wolkenuntergrenze
Mi, 23.01. 19:00 8(360m)
Mi, 23.01. 18:50 8(360m)
Mi, 23.01. 18:40 8(360m)
Mi, 23.01. 18:30 3(210m) 8(330m)
Mi, 23.01. 18:20 3(210m) 8(330m)
Mi, 23.01. 18:10 6(210m) 8(330m)
Mi, 23.01. 18:00 8(180m)
Mi, 23.01. 17:30 8(180m)
Mi, 23.01. 17:00 7(180m)
Mi, 23.01. 16:30 7(210m) 7(540m) 8(1260m)
Mi, 23.01. 16:00 7(210m) 8(360m) 8(1290m)
Ortszeit Luftdruck NN (hPa) Tendenz (hPa in 3 Std.)
Mi, 23.01. 19:00 1000 + 2,1
Mi, 23.01. 13:00 997 - 0,4
Mi, 23.01. 7:00 998 - 1,9
Mi, 23.01. 1:00 1003 - 1,3
Di, 22.01. 19:00 1006 - 1,7
Di, 22.01. 13:00 1011 - 2,8
Di, 22.01. 7:00 1016 - 2,0
Di, 22.01. 1:00 1020 - 1,4
Ortszeit Luftdruck NN (hPa) Tendenz (hPa in 3 Std.)
Mi, 23.01. 19:00 1000 + 2,1
Mi, 23.01. 18:50 1000 keine Meldung
Mi, 23.01. 18:40 1000 keine Meldung
Mi, 23.01. 18:30 1000 + 2,0
Mi, 23.01. 18:20 1000 keine Meldung
Mi, 23.01. 18:10 999 keine Meldung
Mi, 23.01. 18:00 999 + 1,8
Mi, 23.01. 17:30 999 + 1,5
Mi, 23.01. 17:00 998 + 1,2
Mi, 23.01. 16:30 998 + 0,9
Mi, 23.01. 16:00 998 + 0,5
Ortszeit Schneehöhe (cm)
Mi, 23.01. 19:00 0
Mi, 23.01. 13:00 1
Mi, 23.01. 7:00 1
Mi, 23.01. 1:00 0
Di, 22.01. 19:00 0
Di, 22.01. 13:00 0
Di, 22.01. 7:00 0
Di, 22.01. 1:00 0
Ortszeit Schneehöhe (cm)
Mi, 23.01. 19:00 0
Mi, 23.01. 18:50 0
Mi, 23.01. 18:40 0
Mi, 23.01. 18:30 0
Mi, 23.01. 18:20 0
Mi, 23.01. 18:10 0
Mi, 23.01. 18:00 0
Mi, 23.01. 17:30 0
Mi, 23.01. 17:00 0
Mi, 23.01. 16:30 0
Mi, 23.01. 16:00 0
Link zu dieser Seite / Seite empfehlen

Das Wetter in ...